Time;durP1;ratioP1;P1;durP2;ratioP2;P2;SDS_P1;SDS_P2;PMS_P1;PMS_P2;Temp;Humidity;BMP_temperature;BMP_pressure;BME280_temperature;BME280_humidity;BME280_pressure;Samples;Min_cycle;Max_cycle;Signal;HPM_P1;HPM_P2
2022/05/14 00:01:55;;;;;;;4.73;1.97;;;15.70;62.20;;;;;;4966043;28;20502;-45
2022/05/14 00:04:22;;;;;;;3.87;2.10;;;15.70;62.30;;;;;;4978804;28;22243;-45
2022/05/14 00:06:50;;;;;;;3.73;1.70;;;15.60;62.60;;;;;;4982421;28;20958;-45
2022/05/14 00:09:16;;;;;;;3.20;1.50;;;15.50;63.10;;;;;;4979045;28;20497;-45
2022/05/14 00:14:29;;;;;;;2.37;1.70;;;15.50;63.70;;;;;;4980491;28;20551;-45
2022/05/14 00:16:55;;;;;;;6.10;1.77;;;15.40;63.80;;;;;;4977576;28;20471;-46
2022/05/14 00:19:22;;;;;;;3.23;1.90;;;15.40;63.80;;;;;;4959535;28;20970;-45
2022/05/14 00:21:49;;;;;;;1.73;1.63;;;15.40;63.50;;;;;;4982081;28;20487;-46
2022/05/14 00:24:16;;;;;;;2.30;1.70;;;15.40;63.90;;;;;;4982914;28;20544;-45
2022/05/14 00:26:43;;;;;;;3.37;2.10;;;15.40;64.20;;;;;;4982977;28;20473;-45
2022/05/14 00:29:13;;;;;;;5.00;2.00;;;15.30;64.50;;;;;;4980775;28;20472;-45
2022/05/14 00:31:39;;;;;;;3.90;1.80;;;15.30;64.70;;;;;;4981831;28;20880;-45
2022/05/14 00:34:06;;;;;;;4.13;1.90;;;15.30;64.90;;;;;;4979497;28;20462;-45
2022/05/14 00:36:33;;;;;;;6.30;2.50;;;15.30;64.90;;;;;;4976426;28;20863;-45
2022/05/14 00:39:00;;;;;;;4.43;2.20;;;15.30;65.10;;;;;;4978995;28;20484;-45
2022/05/14 00:41:28;;;;;;;2.60;2.00;;;15.30;65.10;;;;;;4980164;28;20591;-45
2022/05/14 00:43:58;;;;;;;2.90;1.73;;;15.30;65.10;;;;;;4982831;28;20495;-45
2022/05/14 00:46:57;;;;;;;2.60;2.13;;;15.30;65.00;;;;;;4980451;28;20494;-45
2022/05/14 00:49:26;;;;;;;3.37;2.70;;;15.30;65.10;;;;;;4981543;28;20539;-44
2022/05/14 00:51:53;;;;;;;2.57;1.80;;;15.20;65.20;;;;;;4981900;28;20476;-45
2022/05/14 00:54:28;;;;;;;3.40;1.83;;;15.20;65.40;;;;;;4965019;28;21289;-45
2022/05/14 00:57:03;;;;;;;8.83;2.10;;;15.20;65.30;;;;;;4977271;28;20562;-45
2022/05/14 00:59:30;;;;;;;6.47;2.23;;;15.20;65.30;;;;;;4964907;28;20842;-45
2022/05/14 01:01:58;;;;;;;2.47;2.27;;;15.20;65.60;;;;;;4981760;28;20923;-45
2022/05/14 01:04:29;;;;;;;4.00;1.97;;;15.10;65.50;;;;;;4958526;28;20456;-45
2022/05/14 01:07:07;;;;;;;4.30;1.70;;;15.10;65.40;;;;;;4968815;28;20883;-45
2022/05/14 01:09:35;;;;;;;2.30;2.00;;;15.10;65.50;;;;;;4979093;28;20464;-45
2022/05/14 01:12:04;;;;;;;3.77;2.27;;;15.10;65.70;;;;;;4976403;28;20482;-45
2022/05/14 01:14:30;;;;;;;2.77;1.93;;;15.00;65.90;;;;;;4961321;28;20474;-45
2022/05/14 01:16:57;;;;;;;3.90;2.60;;;15.00;66.10;;;;;;4961251;28;20474;-44
2022/05/14 01:19:24;;;;;;;2.57;1.93;;;15.00;65.50;;;;;;4980077;28;20477;-45
2022/05/14 01:22:11;;;;;;;2.10;1.90;;;15.10;65.00;;;;;;4978999;28;20592;-45
2022/05/14 01:27:55;;;;;;;3.93;2.10;;;15.00;64.70;;;;;;4982313;28;20483;-45
2022/05/14 01:30:22;;;;;;;5.80;2.10;;;14.90;65.20;;;;;;4944894;28;20460;-45
2022/05/14 01:33:04;;;;;;;3.33;1.60;;;14.80;65.90;;;;;;4977321;28;20479;-45
2022/05/14 01:35:34;;;;;;;2.83;1.90;;;14.80;66.00;;;;;;4978830;28;20477;-44
2022/05/14 01:38:01;;;;;;;3.50;1.93;;;14.70;66.30;;;;;;4981745;28;20465;-45
2022/05/14 01:40:30;;;;;;;3.77;2.40;;;14.70;66.50;;;;;;4980231;28;20480;-45
2022/05/14 01:42:57;;;;;;;2.60;2.03;;;14.70;66.60;;;;;;4978837;28;20577;-45
2022/05/14 01:45:25;;;;;;;1.73;1.63;;;14.60;66.70;;;;;;4965281;28;20464;-46
2022/05/14 01:47:53;;;;;;;1.40;1.30;;;14.60;67.00;;;;;;4979207;28;20474;-44
2022/05/14 01:50:19;;;;;;;3.27;2.13;;;14.60;67.10;;;;;;4981977;28;20470;-44
2022/05/14 01:52:46;;;;;;;2.07;1.87;;;14.60;67.30;;;;;;4976399;28;20510;-45
2022/05/14 01:55:13;;;;;;;1.77;1.67;;;14.60;67.60;;;;;;4978049;28;20911;-44
2022/05/14 01:57:41;;;;;;;2.53;2.00;;;14.60;67.70;;;;;;4963055;28;20970;-44
2022/05/14 02:00:10;;;;;;;3.70;2.33;;;14.60;67.70;;;;;;4978268;28;20477;-44
2022/05/14 02:02:37;;;;;;;2.77;2.13;;;14.60;67.70;;;;;;4980114;28;21972;-45
2022/05/14 02:05:04;;;;;;;7.87;2.73;;;14.60;67.80;;;;;;4977380;28;20916;-45
2022/05/14 02:07:31;;;;;;;4.50;2.20;;;14.60;67.90;;;;;;4981421;28;20449;-45
2022/05/14 02:09:58;;;;;;;3.77;2.20;;;14.60;68.00;;;;;;4979451;28;20464;-45
2022/05/14 02:12:25;;;;;;;2.33;2.03;;;14.60;68.00;;;;;;4981640;28;20824;-45
2022/05/14 02:14:52;;;;;;;2.43;2.17;;;14.60;68.00;;;;;;4981430;28;20494;-45
2022/05/14 02:17:18;;;;;;;6.90;2.60;;;14.60;68.10;;;;;;4967903;28;20509;-45
2022/05/14 02:19:45;;;;;;;3.67;2.33;;;14.60;68.10;;;;;;4968681;28;20465;-45
2022/05/14 02:22:12;;;;;;;2.60;2.13;;;14.60;68.00;;;;;;4979440;28;20493;-45
2022/05/14 02:24:38;;;;;;;2.80;1.80;;;14.60;68.10;;;;;;4960310;28;20482;-45
2022/05/14 02:27:05;;;;;;;3.87;2.43;;;14.60;68.10;;;;;;4978302;28;20457;-45
2022/05/14 02:29:50;;;;;;;5.20;2.47;;;14.60;68.10;;;;;;4975975;28;20493;-45
2022/05/14 02:32:23;;;;;;;2.87;2.30;;;14.60;68.50;;;;;;4979729;28;20489;-45
2022/05/14 02:34:50;;;;;;;4.53;2.40;;;14.70;68.00;;;;;;4977236;28;20559;-45
2022/05/14 02:37:18;;;;;;;2.30;2.10;;;14.60;68.30;;;;;;4976036;28;20468;-45
2022/05/14 02:39:46;;;;;;;3.70;2.50;;;14.60;68.50;;;;;;4959189;28;20476;-45
2022/05/14 02:42:13;;;;;;;3.57;1.70;;;14.50;68.80;;;;;;4962058;28;20510;-45
2022/05/14 02:44:40;;;;;;;4.30;2.03;;;14.50;68.80;;;;;;4978493;28;20464;-45
2022/05/14 02:47:07;;;;;;;2.73;2.17;;;14.50;68.80;;;;;;4980740;28;20465;-45
2022/05/14 02:49:33;;;;;;;4.20;2.90;;;14.50;68.80;;;;;;4963830;28;20995;-45
2022/05/14 02:52:00;;;;;;;2.80;1.90;;;14.50;68.90;;;;;;4981629;28;20507;-45
2022/05/14 02:54:27;;;;;;;4.67;2.37;;;14.50;69.00;;;;;;4979375;28;20459;-45
2022/05/14 02:56:54;;;;;;;2.73;2.00;;;14.40;69.00;;;;;;4974053;28;20473;-47
2022/05/14 02:59:21;;;;;;;6.77;2.43;;;14.40;69.10;;;;;;4975628;28;20472;-47
2022/05/14 03:01:48;;;;;;;2.40;1.80;;;14.40;69.20;;;;;;4973471;28;20852;-47
2022/05/14 03:04:24;;;;;;;1.90;1.67;;;14.40;69.30;;;;;;4981091;28;20487;-46
2022/05/14 03:06:55;;;;;;;2.30;2.10;;;14.40;69.10;;;;;;4976024;28;20896;-46
2022/05/14 03:09:22;;;;;;;2.10;1.90;;;14.40;69.20;;;;;;4979586;28;20453;-46
2022/05/14 03:11:49;;;;;;;2.27;2.07;;;14.30;69.20;;;;;;4976781;28;20479;-47
2022/05/14 03:14:17;;;;;;;2.63;2.40;;;14.30;69.30;;;;;;4961050;28;20886;-46
2022/05/14 03:16:44;;;;;;;7.60;2.70;;;14.30;69.20;;;;;;4964431;28;20459;-47
2022/05/14 03:19:12;;;;;;;3.00;1.97;;;14.40;68.90;;;;;;4979315;28;20468;-46
2022/05/14 03:21:40;;;;;;;3.20;2.80;;;14.40;68.80;;;;;;4981013;28;20592;-47
2022/05/14 03:24:08;;;;;;;2.43;2.10;;;14.30;68.80;;;;;;4963218;28;20467;-47
2022/05/14 03:26:34;;;;;;;4.27;2.80;;;14.30;68.80;;;;;;4980690;28;20539;-47
2022/05/14 03:29:02;;;;;;;4.50;2.43;;;14.30;68.80;;;;;;4977987;28;20916;-47
2022/05/14 03:31:31;;;;;;;3.00;2.63;;;14.40;68.30;;;;;;4961306;28;20473;-46
2022/05/14 03:33:58;;;;;;;10.60;2.67;;;14.30;68.60;;;;;;4981043;28;20464;-46
2022/05/14 03:36:25;;;;;;;2.30;2.10;;;14.30;68.70;;;;;;4978437;28;20460;-46
2022/05/14 03:38:53;;;;;;;2.70;2.27;;;14.20;69.20;;;;;;4973385;28;20557;-46
2022/05/14 03:41:21;;;;;;;5.57;2.40;;;14.20;69.00;;;;;;4978026;28;20938;-46
2022/05/14 03:43:48;;;;;;;5.43;2.60;;;14.20;68.90;;;;;;4970289;28;20471;-46
2022/05/14 03:46:17;;;;;;;3.67;2.50;;;14.20;69.20;;;;;;4975776;28;20475;-46
2022/05/14 03:48:44;;;;;;;3.13;2.10;;;14.10;69.10;;;;;;4977555;28;20531;-46
2022/05/14 03:51:11;;;;;;;4.77;2.97;;;14.10;69.00;;;;;;4979603;28;20460;-46
2022/05/14 03:53:38;;;;;;;3.23;2.40;;;14.10;69.50;;;;;;4957720;28;21122;-46
2022/05/14 03:56:06;;;;;;;5.60;2.73;;;14.00;69.50;;;;;;4978087;28;20544;-46
2022/05/14 03:58:33;;;;;;;6.73;3.17;;;14.00;69.50;;;;;;4980446;28;20970;-46
2022/05/14 04:01:00;;;;;;;4.73;2.67;;;14.00;70.00;;;;;;4977371;28;20488;-46
2022/05/14 04:03:28;;;;;;;3.57;2.97;;;13.90;70.00;;;;;;4965363;28;20495;-46
2022/05/14 04:05:55;;;;;;;4.33;3.30;;;13.90;70.10;;;;;;4981093;28;20976;-46
2022/05/14 04:08:22;;;;;;;4.40;2.40;;;13.90;70.10;;;;;;4978041;28;20816;-46
2022/05/14 04:10:48;;;;;;;3.03;2.70;;;13.80;70.30;;;;;;4977586;28;20471;-46
2022/05/14 04:13:15;;;;;;;3.20;2.90;;;13.80;70.60;;;;;;4978050;28;20472;-45
2022/05/14 04:15:42;;;;;;;6.80;2.83;;;13.70;70.80;;;;;;4958764;28;20467;-47
2022/05/14 04:18:09;;;;;;;3.97;2.63;;;13.70;71.10;;;;;;4979635;28;20471;-46
2022/05/14 04:20:37;;;;;;;5.53;2.70;;;13.70;71.00;;;;;;4961372;28;20468;-45
2022/05/14 04:23:04;;;;;;;3.20;2.90;;;13.70;71.30;;;;;;4980648;28;20506;-46
2022/05/14 04:25:31;;;;;;;4.60;2.60;;;13.70;71.20;;;;;;4968263;28;20465;-46
2022/05/14 04:27:59;;;;;;;3.97;2.70;;;13.70;71.70;;;;;;4964022;28;20494;-46
2022/05/14 04:30:26;;;;;;;4.10;2.73;;;13.70;71.60;;;;;;4978817;28;20470;-46
2022/05/14 04:32:53;;;;;;;3.80;2.80;;;13.70;71.60;;;;;;4982235;28;20983;-46
2022/05/14 04:35:20;;;;;;;6.80;3.20;;;13.70;71.50;;;;;;4982728;28;20465;-45
2022/05/14 04:37:47;;;;;;;3.13;2.83;;;13.80;71.50;;;;;;4983040;28;20527;-46
2022/05/14 04:40:13;;;;;;;2.83;2.63;;;13.80;71.60;;;;;;4984163;28;20469;-46
2022/05/14 04:42:40;;;;;;;3.37;3.07;;;13.80;71.50;;;;;;4982182;28;20492;-46
2022/05/14 04:45:09;;;;;;;2.93;2.63;;;13.80;71.40;;;;;;4979587;28;20539;-46
2022/05/14 04:47:39;;;;;;;5.33;2.87;;;13.80;71.30;;;;;;4980592;28;20492;-46
2022/05/14 04:50:07;;;;;;;3.10;2.87;;;13.90;71.20;;;;;;4979823;28;20595;-46
2022/05/14 04:52:34;;;;;;;4.60;2.60;;;13.90;70.80;;;;;;4983767;28;21082;-47
2022/05/14 04:55:01;;;;;;;6.73;3.10;;;14.00;70.90;;;;;;4981846;28;20832;-46
2022/05/14 04:57:28;;;;;;;4.43;3.10;;;14.00;71.10;;;;;;4965742;28;20473;-47
2022/05/14 04:59:54;;;;;;;2.90;2.70;;;14.00;71.00;;;;;;4978243;28;20473;-46
2022/05/14 05:05:07;;;;;;;6.73;3.80;;;14.00;71.20;;;;;;4981920;28;20529;-47
2022/05/14 05:07:34;;;;;;;4.40;3.20;;;14.10;71.10;;;;;;4980936;28;20532;-47
2022/05/14 05:10:01;;;;;;;4.40;2.97;;;14.10;71.20;;;;;;4982428;28;20540;-46
2022/05/14 05:12:28;;;;;;;3.90;3.43;;;14.10;71.10;;;;;;4980102;28;20473;-46
2022/05/14 05:14:55;;;;;;;3.60;3.30;;;14.10;71.00;;;;;;4982332;28;20473;-46
2022/05/14 05:17:21;;;;;;;5.37;2.90;;;14.10;71.00;;;;;;4970397;28;20480;-46
2022/05/14 05:19:48;;;;;;;4.00;3.60;;;14.20;71.30;;;;;;4976988;28;20471;-47
2022/05/14 05:22:15;;;;;;;6.40;3.23;;;14.30;71.20;;;;;;4962529;28;21513;-46
2022/05/14 05:24:42;;;;;;;6.33;3.50;;;14.30;70.90;;;;;;4980234;28;20475;-47
2022/05/14 05:27:08;;;;;;;3.40;3.10;;;14.40;70.90;;;;;;4967020;28;20464;-46
2022/05/14 05:29:35;;;;;;;7.10;4.10;;;14.40;71.00;;;;;;4963555;28;20468;-47
2022/05/14 05:32:02;;;;;;;5.10;3.40;;;14.50;70.60;;;;;;4978275;28;20481;-47
2022/05/14 05:34:29;;;;;;;5.23;3.70;;;14.50;70.50;;;;;;4981581;28;21010;-46
2022/05/14 05:36:56;;;;;;;5.43;4.30;;;14.60;70.40;;;;;;4983551;28;20989;-46
2022/05/14 05:39:23;;;;;;;3.87;3.50;;;14.60;70.40;;;;;;4981862;28;20469;-46
2022/05/14 05:41:49;;;;;;;6.77;3.90;;;14.60;70.90;;;;;;4982177;28;20570;-46
2022/05/14 05:44:16;;;;;;;8.10;3.43;;;14.70;70.80;;;;;;4981779;28;20464;-46
2022/05/14 05:46:43;;;;;;;4.30;3.13;;;14.80;70.30;;;;;;4977113;28;21011;-46
2022/05/14 05:49:09;;;;;;;4.73;4.00;;;14.80;70.30;;;;;;4981320;28;20469;-47
2022/05/14 05:51:36;;;;;;;5.30;3.80;;;14.80;70.50;;;;;;4977001;28;20468;-46
2022/05/14 05:56:56;;;;;;;3.40;3.07;;;15.00;69.90;;;;;;4970794;28;20708;-46
2022/05/14 05:59:24;;;;;;;6.90;4.10;;;15.10;69.60;;;;;;4977461;28;20469;-46
2022/05/14 06:01:52;;;;;;;4.80;3.77;;;15.10;69.80;;;;;;4976907;28;20485;-46
2022/05/14 06:04:20;;;;;;;5.30;3.60;;;15.10;70.00;;;;;;4978655;28;20495;-46
2022/05/14 06:06:48;;;;;;;6.60;3.37;;;15.20;69.60;;;;;;4976798;28;20499;-46
2022/05/14 06:09:20;;;;;;;4.77;3.50;;;15.30;69.50;;;;;;4968210;28;20536;-46
2022/05/14 06:11:47;;;;;;;3.47;3.00;;;15.40;69.10;;;;;;4971932;28;20686;-46
2022/05/14 06:14:14;;;;;;;7.80;4.00;;;15.50;69.10;;;;;;4979454;28;20560;-47
2022/05/14 06:16:41;;;;;;;5.27;3.63;;;15.60;68.40;;;;;;4975115;28;20839;-47
2022/05/14 06:19:09;;;;;;;4.70;3.70;;;15.70;68.00;;;;;;4963280;28;20476;-47
2022/05/14 06:21:39;;;;;;;4.60;3.57;;;15.70;68.10;;;;;;4975569;28;20464;-47
2022/05/14 06:24:07;;;;;;;9.17;3.47;;;15.70;67.90;;;;;;4976554;28;20498;-47
2022/05/14 06:26:34;;;;;;;3.73;2.70;;;15.80;67.90;;;;;;4975506;28;20928;-47
2022/05/14 06:29:01;;;;;;;3.97;2.80;;;16.00;68.40;;;;;;4979180;28;20554;-47
2022/05/14 06:31:28;;;;;;;3.70;3.33;;;16.10;68.00;;;;;;4977399;28;20489;-47
2022/05/14 06:33:55;;;;;;;4.80;2.80;;;16.30;67.90;;;;;;4961224;28;20486;-47
2022/05/14 06:36:23;;;;;;;4.97;2.77;;;16.40;67.50;;;;;;4977909;28;20558;-46
2022/05/14 06:38:50;;;;;;;4.23;2.70;;;16.60;65.60;;;;;;4978264;28;20474;-46
2022/05/14 06:41:16;;;;;;;8.63;2.83;;;16.60;65.60;;;;;;4977313;28;20553;-46
2022/05/14 06:43:43;;;;;;;3.60;2.70;;;16.80;66.00;;;;;;4981202;28;20548;-47
2022/05/14 06:46:11;;;;;;;3.93;2.37;;;16.90;65.60;;;;;;4974612;28;20466;-47
2022/05/14 06:48:38;;;;;;;3.90;2.50;;;17.00;65.50;;;;;;4975836;28;20460;-47
2022/05/14 06:51:08;;;;;;;4.00;3.43;;;17.10;64.70;;;;;;4980156;28;21000;-47
2022/05/14 06:53:37;;;;;;;3.83;2.80;;;17.20;64.90;;;;;;4980621;28;20549;-46
2022/05/14 06:56:06;;;;;;;6.37;2.90;;;17.30;65.20;;;;;;4961628;28;20957;-46
2022/05/14 06:58:37;;;;;;;7.17;2.77;;;17.50;65.20;;;;;;4977825;28;20462;-46
2022/05/14 07:01:05;;;;;;;7.23;3.10;;;17.70;64.00;;;;;;4978636;28;20630;-46
2022/05/14 07:09:09;;;;;;;4.47;2.60;;;18.20;60.00;;;;;;4976612;28;20544;-47
2022/05/14 07:11:37;;;;;;;5.47;2.10;;;18.30;59.60;;;;;;4976844;28;20507;-46
2022/05/14 07:14:05;;;;;;;3.63;2.37;;;18.50;57.60;;;;;;4977158;28;20574;-46
2022/05/14 07:16:32;;;;;;;4.00;2.10;;;18.60;57.40;;;;;;4976198;28;20975;-46
2022/05/14 07:18:59;;;;;;;7.40;2.80;;;18.70;57.80;;;;;;4973609;28;20559;-46
2022/05/14 07:21:29;;;;;;;4.17;2.53;;;18.90;58.30;;;;;;4966777;28;21065;-46
2022/05/14 07:23:56;;;;;;;6.73;2.50;;;19.00;58.40;;;;;;4968363;28;20561;-46
2022/05/14 07:26:22;;;;;;;5.23;2.07;;;19.30;58.10;;;;;;4977869;28;20464;-46
2022/05/14 07:28:49;;;;;;;3.33;2.40;;;19.50;57.00;;;;;;4971602;28;20819;-46
2022/05/14 07:31:16;;;;;;;6.97;3.10;;;19.70;57.00;;;;;;4964018;28;20485;-46
2022/05/14 07:33:43;;;;;;;3.70;2.67;;;19.90;56.70;;;;;;4958153;28;21099;-46
2022/05/14 07:36:18;;;;;;;3.40;2.53;;;20.10;55.80;;;;;;4977092;28;20438;-46
2022/05/14 07:38:46;;;;;;;4.00;2.17;;;20.20;55.10;;;;;;4976181;28;20998;-46
2022/05/14 07:41:15;;;;;;;5.60;2.40;;;20.30;54.80;;;;;;4966684;28;20557;-46
2022/05/14 07:43:44;;;;;;;4.17;2.07;;;20.60;55.10;;;;;;4977937;28;20495;-46
2022/05/14 07:46:19;;;;;;;3.43;2.13;;;20.70;55.30;;;;;;4976471;28;20469;-46
2022/05/14 07:48:47;;;;;;;3.30;2.67;;;20.80;55.30;;;;;;4963348;28;20471;-46
2022/05/14 07:51:14;;;;;;;7.80;2.70;;;20.90;54.80;;;;;;4961121;28;20493;-46
2022/05/14 07:53:41;;;;;;;3.53;2.23;;;21.10;53.30;;;;;;4966076;28;21258;-46
2022/05/14 07:56:09;;;;;;;6.27;2.50;;;21.20;53.60;;;;;;4979691;28;20854;-46
2022/05/14 07:58:40;;;;;;;4.80;2.70;;;21.30;52.90;;;;;;4961633;28;20486;-46
2022/05/14 08:01:07;;;;;;;6.60;2.60;;;21.30;53.20;;;;;;4977729;28;20562;-46
2022/05/14 08:03:34;;;;;;;7.47;2.73;;;21.30;53.20;;;;;;4981900;28;20963;-47
2022/05/14 08:06:02;;;;;;;4.47;2.37;;;21.40;53.10;;;;;;4980638;28;20832;-46
2022/05/14 08:08:29;;;;;;;434.40;42.60;;;21.50;53.50;;;;;;4966538;28;20469;-46
2022/05/14 08:10:56;;;;;;;18.27;5.17;;;21.70;52.70;;;;;;4983011;28;20492;-46
2022/05/14 08:13:24;;;;;;;189.37;21.47;;;21.80;51.90;;;;;;4980788;28;20472;-46
2022/05/14 08:15:52;;;;;;;104.23;12.33;;;22.00;51.20;;;;;;4981565;28;20540;-46
2022/05/14 08:18:19;;;;;;;6.23;2.50;;;22.10;51.60;;;;;;4979675;28;20461;-47
2022/05/14 08:20:50;;;;;;;4.37;2.13;;;22.30;52.20;;;;;;4982929;28;20555;-46
2022/05/14 08:26:05;;;;;;;3.83;2.10;;;22.50;51.70;;;;;;4977148;28;20551;-46
2022/05/14 08:28:32;;;;;;;2.90;2.20;;;22.60;51.10;;;;;;4980898;28;20444;-46
2022/05/14 08:31:00;;;;;;;6.07;2.50;;;22.70;50.50;;;;;;4980861;28;20488;-47
2022/05/14 08:33:28;;;;;;;6.43;2.47;;;22.90;49.40;;;;;;4981488;28;20524;-47
2022/05/14 08:35:55;;;;;;;5.87;2.50;;;23.10;48.50;;;;;;4982297;28;20946;-47
2022/05/14 08:38:23;;;;;;;6.43;2.10;;;23.30;48.20;;;;;;4981934;28;20468;-47
2022/05/14 08:41:00;;;;;;;7.40;2.73;;;23.40;48.30;;;;;;4982176;28;20472;-47
2022/05/14 08:43:45;;;;;;;5.90;2.17;;;23.60;48.20;;;;;;4976584;28;20580;-47
2022/05/14 08:46:15;;;;;;;3.57;1.90;;;23.80;47.70;;;;;;4981493;28;20953;-47
2022/05/14 08:48:42;;;;;;;59.70;9.70;;;24.00;47.70;;;;;;4976698;28;20445;-47
2022/05/14 08:51:15;;;;;;;28.60;4.37;;;24.20;47.30;;;;;;4978874;28;20461;-47
2022/05/14 08:53:44;;;;;;;3.67;2.10;;;24.20;46.60;;;;;;4970385;28;20469;-48
2022/05/14 08:56:22;;;;;;;1.80;1.70;;;24.30;46.00;;;;;;4982646;28;20548;-47
2022/05/14 08:59:18;;;;;;;92.40;12.03;;;24.30;46.30;;;;;;4978926;28;20543;-48
2022/05/14 09:01:46;;;;;;;187.63;20.27;;;24.30;45.50;;;;;;4959879;28;20469;-47
2022/05/14 09:04:17;;;;;;;6.53;2.13;;;24.50;45.80;;;;;;4971450;28;20550;-47
2022/05/14 09:06:47;;;;;;;10.10;2.80;;;24.60;44.80;;;;;;4979380;28;20869;-48
2022/05/14 09:09:14;;;;;;;3.40;2.10;;;24.70;45.40;;;;;;4980545;28;20471;-48
2022/05/14 09:11:45;;;;;;;4.17;2.00;;;24.90;44.80;;;;;;4979204;28;20485;-47
2022/05/14 09:14:24;;;;;;;100.83;13.43;;;25.00;44.70;;;;;;4979535;28;20925;-48
2022/05/14 09:17:04;;;;;;;13.07;3.10;;;25.20;44.50;;;;;;4961538;28;20539;-48
2022/05/14 09:19:34;;;;;;;4.00;1.80;;;25.30;45.00;;;;;;4975820;28;20469;-48
2022/05/14 09:22:12;;;;;;;1.77;1.67;;;25.40;44.50;;;;;;4978777;28;20464;-48
2022/05/14 09:25:00;;;;;;;2.50;1.50;;;25.60;43.60;;;;;;4979077;28;20571;-48
2022/05/14 09:27:51;;;;;;;7.00;2.20;;;25.70;43.70;;;;;;4978019;28;20551;-48
2022/05/14 09:30:31;;;;;;;4.37;2.33;;;25.80;43.50;;;;;;4981494;28;20933;-48
2022/05/14 09:32:59;;;;;;;2.90;1.97;;;26.00;43.30;;;;;;4980048;28;20441;-48
2022/05/14 09:35:28;;;;;;;3.97;1.77;;;26.10;43.00;;;;;;4981817;28;20556;-48
2022/05/14 09:38:08;;;;;;;8.00;1.80;;;26.20;43.10;;;;;;4979284;28;20461;-48
2022/05/14 09:40:35;;;;;;;34.97;5.87;;;26.10;42.70;;;;;;4978679;28;20983;-47
2022/05/14 09:43:32;;;;;;;5.37;2.30;;;26.10;43.00;;;;;;4968615;28;20465;-46
2022/05/14 09:46:02;;;;;;;3.87;1.80;;;26.20;42.70;;;;;;4979273;28;20637;-47
2022/05/14 09:48:51;;;;;;;2.47;1.60;;;26.40;42.80;;;;;;4968707;28;21012;-47
2022/05/14 09:51:28;;;;;;;3.70;2.30;;;26.50;42.10;;;;;;4980073;28;20490;-46
2022/05/14 09:54:06;;;;;;;29.23;5.30;;;26.60;41.90;;;;;;4976741;28;20554;-47
2022/05/14 09:57:11;;;;;;;4.37;1.70;;;26.70;42.20;;;;;;4983406;28;20552;-46
2022/05/14 09:59:53;;;;;;;7.20;2.20;;;26.80;41.70;;;;;;4978890;28;20501;-47
2022/05/14 10:02:50;;;;;;;5.93;1.63;;;26.80;42.20;;;;;;4977334;28;20496;-47
2022/05/14 10:05:43;;;;;;;5.23;1.60;;;26.90;41.50;;;;;;4978648;28;20540;-46
2022/05/14 10:08:31;;;;;;;4.50;1.50;;;27.10;41.30;;;;;;4965845;28;20971;-46
2022/05/14 10:10:58;;;;;;;5.27;1.70;;;27.30;41.30;;;;;;4962759;28;20634;-46
2022/05/14 10:13:36;;;;;;;2.20;1.80;;;27.30;41.10;;;;;;4973760;28;20456;-47
2022/05/14 10:16:29;;;;;;;4.90;2.43;;;27.30;41.30;;;;;;4979009;28;20543;-46
2022/05/14 10:19:20;;;;;;;5.47;1.80;;;27.10;41.40;;;;;;4978828;28;20595;-46
2022/05/14 10:22:19;;;;;;;4.17;1.83;;;26.90;41.80;;;;;;4978297;28;20496;-47
2022/05/14 10:28:00;;;;;;;2.67;1.80;;;26.40;42.40;;;;;;4979122;28;20516;-47
2022/05/14 10:30:38;;;;;;;2.70;1.97;;;26.20;42.40;;;;;;4973194;28;20456;-46
2022/05/14 10:33:12;;;;;;;2.73;1.40;;;26.00;43.30;;;;;;4976857;28;20554;-46
2022/05/14 10:36:04;;;;;;;4.17;1.60;;;25.70;43.20;;;;;;4977924;28;20461;-47
2022/05/14 10:38:47;;;;;;;2.80;1.40;;;25.30;44.30;;;;;;4982342;28;20468;-46
2022/05/14 10:41:35;;;;;;;2.87;1.30;;;25.00;44.50;;;;;;4963739;28;20460;-46
2022/05/14 10:44:28;;;;;;;3.00;1.90;;;25.00;44.40;;;;;;4972599;28;20860;-47
2022/05/14 10:47:02;;;;;;;3.77;2.07;;;24.80;44.40;;;;;;4971985;28;20472;-46
2022/05/14 10:49:51;;;;;;;4.73;1.80;;;24.60;44.80;;;;;;4979081;28;20453;-47
2022/05/14 10:52:18;;;;;;;4.53;2.10;;;24.50;45.50;;;;;;4976995;28;20623;-47
2022/05/14 10:54:45;;;;;;;5.87;1.60;;;24.30;45.30;;;;;;4960808;28;21087;-46
2022/05/14 10:57:14;;;;;;;6.40;1.80;;;24.00;45.60;;;;;;4978317;28;20468;-46
2022/05/14 11:00:07;;;;;;;4.50;1.80;;;23.80;45.90;;;;;;4977490;28;20461;-46
2022/05/14 11:02:38;;;;;;;3.30;1.67;;;23.70;46.90;;;;;;4975687;28;20482;-47
2022/05/14 11:05:06;;;;;;;2.13;1.23;;;23.50;46.60;;;;;;4981798;28;20491;-46
2022/05/14 11:07:39;;;;;;;4.37;1.47;;;23.30;47.30;;;;;;4979987;28;20466;-46
2022/05/14 11:10:34;;;;;;;6.87;1.70;;;23.20;47.40;;;;;;4978215;28;20492;-47
2022/05/14 11:13:11;;;;;;;3.80;1.60;;;23.20;47.50;;;;;;4976725;28;20564;-47
2022/05/14 11:15:39;;;;;;;7.80;1.80;;;23.30;46.00;;;;;;4978564;28;20789;-46
2022/05/14 11:18:09;;;;;;;4.50;1.57;;;23.30;46.70;;;;;;4965468;28;20513;-47
2022/05/14 11:20:37;;;;;;;4.17;1.80;;;23.30;46.30;;;;;;4977789;28;20465;-47
2022/05/14 11:23:08;;;;;;;3.40;1.60;;;23.20;45.00;;;;;;4977016;28;20500;-47
2022/05/14 11:25:35;;;;;;;2.57;1.20;;;23.10;45.10;;;;;;4960113;28;20496;-47
2022/05/14 11:28:08;;;;;;;1.57;1.33;;;23.00;45.30;;;;;;4977242;28;20482;-47
2022/05/14 11:30:43;;;;;;;3.50;2.23;;;23.00;46.10;;;;;;4976679;28;20470;-47
2022/05/14 11:33:28;;;;;;;2.93;1.97;;;23.00;46.20;;;;;;4974591;28;20457;-47
2022/05/14 11:36:17;;;;;;;3.33;1.70;;;23.00;46.30;;;;;;4950982;28;20473;-46
2022/05/14 11:38:47;;;;;;;2.83;2.00;;;23.00;45.50;;;;;;4977461;28;20548;-46
2022/05/14 11:41:28;;;;;;;2.93;2.30;;;22.90;46.00;;;;;;4977285;28;21012;-46
2022/05/14 11:43:55;;;;;;;2.67;1.60;;;22.90;46.50;;;;;;4976100;28;20486;-47
2022/05/14 11:46:42;;;;;;;3.20;2.33;;;22.80;46.70;;;;;;4963617;28;20469;-46
2022/05/14 11:49:31;;;;;;;3.60;2.23;;;22.80;46.50;;;;;;4979049;28;21007;-46
2022/05/14 11:52:09;;;;;;;3.73;1.97;;;22.80;46.70;;;;;;4977190;28;20457;-46
2022/05/14 11:54:45;;;;;;;3.07;1.70;;;22.70;47.20;;;;;;4976064;28;20469;-46
2022/05/14 11:57:19;;;;;;;2.87;1.60;;;22.80;47.50;;;;;;4978662;28;20477;-46
2022/05/14 12:00:08;;;;;;;2.13;1.60;;;22.90;47.60;;;;;;4956797;28;20472;-46
2022/05/14 12:02:55;;;;;;;3.57;1.50;;;23.00;47.50;;;;;;4978422;28;20528;-47
2022/05/14 12:05:50;;;;;;;2.77;1.60;;;23.00;46.90;;;;;;4955894;28;20484;-46
2022/05/14 12:08:17;;;;;;;2.60;1.30;;;22.90;47.00;;;;;;4976577;28;20557;-46
2022/05/14 12:11:02;;;;;;;1.57;1.20;;;22.90;46.50;;;;;;4974329;28;20629;-46
2022/05/14 12:13:35;;;;;;;4.77;1.50;;;23.00;47.10;;;;;;4955708;28;20467;-46
2022/05/14 12:16:03;;;;;;;3.00;1.83;;;23.00;47.40;;;;;;4959212;28;20884;-46
2022/05/14 12:18:31;;;;;;;2.07;1.87;;;23.10;45.70;;;;;;4975883;28;20539;-47
2022/05/14 12:21:04;;;;;;;2.50;1.77;;;23.20;45.70;;;;;;4977896;28;20469;-47
2022/05/14 12:23:43;;;;;;;2.87;1.50;;;23.20;46.00;;;;;;4973929;28;20529;-47
2022/05/14 12:26:32;;;;;;;3.30;2.17;;;23.10;46.30;;;;;;4970254;28;20460;-47
2022/05/14 12:29:03;;;;;;;4.67;1.60;;;23.10;46.80;;;;;;4982104;28;20475;-47
2022/05/14 12:34:19;;;;;;;3.10;1.90;;;23.30;45.80;;;;;;4974055;28;20464;-46
2022/05/14 12:36:51;;;;;;;5.33;2.37;;;23.20;46.80;;;;;;4973382;28;20492;-48
2022/05/14 12:39:31;;;;;;;3.80;2.07;;;23.30;46.30;;;;;;4978042;28;20500;-47
2022/05/14 12:42:04;;;;;;;3.63;1.53;;;23.30;46.10;;;;;;4980954;28;20943;-48
2022/05/14 12:44:41;;;;;;;2.40;1.43;;;23.40;45.80;;;;;;4976159;28;20520;-48
2022/05/14 12:47:08;;;;;;;1.83;1.40;;;23.40;45.40;;;;;;4979545;28;20528;-48
2022/05/14 12:49:35;;;;;;;2.40;1.70;;;23.50;45.70;;;;;;4978422;28;20454;-47
2022/05/14 12:52:07;;;;;;;4.13;1.47;;;23.50;44.90;;;;;;4973964;28;20459;-47
2022/05/14 12:54:35;;;;;;;1.90;1.73;;;23.50;45.30;;;;;;4966334;28;20461;-48
2022/05/14 12:57:07;;;;;;;4.60;1.80;;;23.60;45.20;;;;;;4965083;28;20976;-47
2022/05/14 12:59:36;;;;;;;3.20;1.37;;;23.60;45.70;;;;;;4979431;28;21003;-48
2022/05/14 13:02:13;;;;;;;1.67;1.57;;;23.60;45.30;;;;;;4982884;28;20500;-48
2022/05/14 13:05:24;;;;;;;3.37;1.40;;;23.70;45.50;;;;;;4976246;28;20523;-47
2022/05/14 13:08:02;;;;;;;13.67;1.63;;;23.80;45.60;;;;;;4972067;28;20469;-48
2022/05/14 13:10:30;;;;;;;3.17;2.17;;;23.80;45.80;;;;;;4977963;28;20464;-46
2022/05/14 13:13:04;;;;;;;2.60;1.87;;;23.80;45.70;;;;;;4978111;28;20461;-47
2022/05/14 13:15:44;;;;;;;4.17;1.33;;;23.80;44.90;;;;;;4978932;28;20987;-47
2022/05/14 13:18:19;;;;;;;3.57;1.73;;;23.80;43.90;;;;;;4979838;28;20464;-48
2022/05/14 13:20:47;;;;;;;3.23;1.13;;;23.80;44.90;;;;;;4980366;28;20751;-48
2022/05/14 13:23:20;;;;;;;4.83;1.80;;;23.90;45.20;;;;;;4978991;28;20460;-48
2022/05/14 13:26:00;;;;;;;3.03;1.70;;;23.90;45.80;;;;;;4972305;28;20527;-48
2022/05/14 13:28:31;;;;;;;5.97;2.43;;;24.00;45.30;;;;;;4981628;28;20464;-48
2022/05/14 13:30:58;;;;;;;1.90;1.30;;;24.00;43.70;;;;;;4981485;28;20847;-48
2022/05/14 13:33:31;;;;;;;3.23;2.00;;;23.90;43.90;;;;;;4977247;28;20524;-48